sensor_id;sensor_type;location;lat;lon;timestamp;pressure;altitude;pressure_sealevel;temperature;humidity
73842;BME280;62184;52.006;5.924;2023-04-25T00:01:34;100231.25;;;12.01;59.39
73842;BME280;62184;52.006;5.924;2023-04-25T00:04:04;100229.72;;;11.95;59.51
73842;BME280;62184;52.006;5.924;2023-04-25T00:06:30;100226.41;;;11.88;59.42
73842;BME280;62184;52.006;5.924;2023-04-25T00:08:57;100227.47;;;11.84;59.43
73842;BME280;62184;52.006;5.924;2023-04-25T00:11:24;100228.59;;;11.79;59.22
73842;BME280;62184;52.006;5.924;2023-04-25T00:13:50;100229.69;;;11.73;59.39
73842;BME280;62184;52.006;5.924;2023-04-25T00:16:16;100245.88;;;11.70;59.25
73842;BME280;62184;52.006;5.924;2023-04-25T00:18:43;100250.44;;;11.67;59.37
73842;BME280;62184;52.006;5.924;2023-04-25T00:21:12;100247.03;;;11.63;58.96
73842;BME280;62184;52.006;5.924;2023-04-25T00:23:38;100253.44;;;11.59;58.91
73842;BME280;62184;52.006;5.924;2023-04-25T00:26:05;100254.59;;;11.52;59.21
73842;BME280;62184;52.006;5.924;2023-04-25T00:28:31;100255.53;;;11.51;59.05
73842;BME280;62184;52.006;5.924;2023-04-25T00:30:58;100251.22;;;11.47;59.09
73842;BME280;62184;52.006;5.924;2023-04-25T00:33:24;100253.03;;;11.46;58.97
73842;BME280;62184;52.006;5.924;2023-04-25T00:35:50;100258.50;;;11.43;58.84
73842;BME280;62184;52.006;5.924;2023-04-25T00:38:19;100260.47;;;11.38;58.91
73842;BME280;62184;52.006;5.924;2023-04-25T00:40:46;100258.66;;;11.39;58.77
73842;BME280;62184;52.006;5.924;2023-04-25T00:43:12;100264.00;;;11.39;58.79
73842;BME280;62184;52.006;5.924;2023-04-25T00:45:39;100256.94;;;11.38;58.89
73842;BME280;62184;52.006;5.924;2023-04-25T00:48:06;100256.97;;;11.36;59.08
73842;BME280;62184;52.006;5.924;2023-04-25T00:50:33;100263.31;;;11.34;58.84
73842;BME280;62184;52.006;5.924;2023-04-25T00:53:00;100275.97;;;11.29;59.16
73842;BME280;62184;52.006;5.924;2023-04-25T00:55:30;100275.06;;;11.30;59.06
73842;BME280;62184;52.006;5.924;2023-04-25T00:57:57;100276.78;;;11.31;59.40
73842;BME280;62184;52.006;5.924;2023-04-25T01:00:23;100274.09;;;11.31;59.29
73842;BME280;62184;52.006;5.924;2023-04-25T01:02:50;100269.63;;;11.31;59.33
73842;BME280;62184;52.006;5.924;2023-04-25T01:05:17;100264.22;;;11.33;58.90
73842;BME280;62184;52.006;5.924;2023-04-25T01:07:44;100265.00;;;11.36;58.79
73842;BME280;62184;52.006;5.924;2023-04-25T01:10:11;100262.28;;;11.38;58.72
73842;BME280;62184;52.006;5.924;2023-04-25T01:12:40;100269.47;;;11.36;58.59
73842;BME280;62184;52.006;5.924;2023-04-25T01:15:07;100270.50;;;11.32;58.35
73842;BME280;62184;52.006;5.924;2023-04-25T01:17:34;100276.84;;;11.29;58.64
73842;BME280;62184;52.006;5.924;2023-04-25T01:20:03;100281.31;;;11.29;58.66
73842;BME280;62184;52.006;5.924;2023-04-25T01:22:33;100279.69;;;11.25;58.83
73842;BME280;62184;52.006;5.924;2023-04-25T01:25:00;100281.53;;;11.23;58.93
73842;BME280;62184;52.006;5.924;2023-04-25T01:27:27;100286.00;;;11.22;59.33
73842;BME280;62184;52.006;5.924;2023-04-25T01:29:54;100286.97;;;11.21;59.33
73842;BME280;62184;52.006;5.924;2023-04-25T01:32:21;100287.00;;;11.20;59.41
73842;BME280;62184;52.006;5.924;2023-04-25T01:34:48;100293.97;;;11.24;59.45
73842;BME280;62184;52.006;5.924;2023-04-25T01:37:16;100290.38;;;11.25;59.42
73842;BME280;62184;52.006;5.924;2023-04-25T01:39:45;100287.66;;;11.26;59.74
73842;BME280;62184;52.006;5.924;2023-04-25T01:42:12;100284.94;;;11.28;59.82
73842;BME280;62184;52.006;5.924;2023-04-25T01:44:39;100293.78;;;11.30;59.92
73842;BME280;62184;52.006;5.924;2023-04-25T01:47:05;100285.66;;;11.31;59.96
73842;BME280;62184;52.006;5.924;2023-04-25T01:49:32;100286.53;;;11.32;59.92
73842;BME280;62184;52.006;5.924;2023-04-25T01:51:58;100294.47;;;11.35;60.18
73842;BME280;62184;52.006;5.924;2023-04-25T01:54:25;100297.81;;;11.40;59.94
73842;BME280;62184;52.006;5.924;2023-04-25T01:56:57;100301.31;;;11.42;60.15
73842;BME280;62184;52.006;5.924;2023-04-25T01:59:23;100298.59;;;11.43;59.70
73842;BME280;62184;52.006;5.924;2023-04-25T02:01:49;100298.56;;;11.45;59.76
73842;BME280;62184;52.006;5.924;2023-04-25T02:04:16;100304.78;;;11.45;59.76
73842;BME280;62184;52.006;5.924;2023-04-25T02:06:42;100304.09;;;11.39;59.63
73842;BME280;62184;52.006;5.924;2023-04-25T02:09:09;100314.97;;;11.34;59.48
73842;BME280;62184;52.006;5.924;2023-04-25T02:11:35;100312.25;;;11.36;59.29
73842;BME280;62184;52.006;5.924;2023-04-25T02:14:04;100317.56;;;11.37;59.26
73842;BME280;62184;52.006;5.924;2023-04-25T02:16:30;100306.91;;;11.36;59.08
73842;BME280;62184;52.006;5.924;2023-04-25T02:18:57;100313.19;;;11.35;59.30
73842;BME280;62184;52.006;5.924;2023-04-25T02:21:23;100317.59;;;11.36;58.88
73842;BME280;62184;52.006;5.924;2023-04-25T02:23:50;100311.44;;;11.34;59.26
73842;BME280;62184;52.006;5.924;2023-04-25T02:26:16;100318.63;;;11.32;59.16
73842;BME280;62184;52.006;5.924;2023-04-25T02:28:42;100314.94;;;11.36;59.03
73842;BME280;62184;52.006;5.924;2023-04-25T02:31:11;100317.47;;;11.39;58.90
73842;BME280;62184;52.006;5.924;2023-04-25T02:33:38;100322.81;;;11.39;58.97
73842;BME280;62184;52.006;5.924;2023-04-25T02:36:05;100321.16;;;11.36;59.02
73842;BME280;62184;52.006;5.924;2023-04-25T02:38:32;100321.31;;;11.32;59.07
73842;BME280;62184;52.006;5.924;2023-04-25T02:40:58;100320.69;;;11.24;59.17
73842;BME280;62184;52.006;5.924;2023-04-25T02:43:25;100326.31;;;11.16;59.31
73842;BME280;62184;52.006;5.924;2023-04-25T02:45:51;100320.50;;;11.05;59.31
73842;BME280;62184;52.006;5.924;2023-04-25T02:48:20;100332.31;;;10.98;59.38
73842;BME280;62184;52.006;5.924;2023-04-25T02:50:47;100330.06;;;10.86;59.59
73842;BME280;62184;52.006;5.924;2023-04-25T02:53:13;100329.41;;;10.79;59.36
73842;BME280;62184;52.006;5.924;2023-04-25T02:55:39;100329.56;;;10.73;59.37
73842;BME280;62184;52.006;5.924;2023-04-25T02:58:06;100334.22;;;10.68;59.09
73842;BME280;62184;52.006;5.924;2023-04-25T03:00:32;100334.41;;;10.62;58.87
73842;BME280;62184;52.006;5.924;2023-04-25T03:02:59;100326.50;;;10.59;58.95
73842;BME280;62184;52.006;5.924;2023-04-25T03:05:28;100334.59;;;10.56;58.85
73842;BME280;62184;52.006;5.924;2023-04-25T03:07:54;100329.41;;;10.51;58.68
73842;BME280;62184;52.006;5.924;2023-04-25T03:10:20;100331.31;;;10.48;58.79
73842;BME280;62184;52.006;5.924;2023-04-25T03:12:47;100326.09;;;10.45;58.56
73842;BME280;62184;52.006;5.924;2023-04-25T03:15:13;100327.13;;;10.39;58.51
73842;BME280;62184;52.006;5.924;2023-04-25T03:17:40;100335.31;;;10.34;58.62
73842;BME280;62184;52.006;5.924;2023-04-25T03:20:07;100333.72;;;10.29;58.44
73842;BME280;62184;52.006;5.924;2023-04-25T03:22:38;100339.22;;;10.23;58.69
73842;BME280;62184;52.006;5.924;2023-04-25T03:25:06;100344.72;;;10.18;58.65
73842;BME280;62184;52.006;5.924;2023-04-25T03:27:33;100345.72;;;10.14;58.76
73842;BME280;62184;52.006;5.924;2023-04-25T03:29:59;100347.66;;;10.09;58.83
73842;BME280;62184;52.006;5.924;2023-04-25T03:32:26;100345.19;;;10.03;58.90
73842;BME280;62184;52.006;5.924;2023-04-25T03:34:52;100343.66;;;9.96;59.14
73842;BME280;62184;52.006;5.924;2023-04-25T03:37:18;100342.78;;;9.95;58.91
73842;BME280;62184;52.006;5.924;2023-04-25T03:39:47;100348.16;;;9.94;59.00
73842;BME280;62184;52.006;5.924;2023-04-25T03:42:14;100348.97;;;9.96;58.82
73842;BME280;62184;52.006;5.924;2023-04-25T03:44:40;100350.63;;;10.00;58.93
73842;BME280;62184;52.006;5.924;2023-04-25T03:47:07;100355.88;;;10.03;59.05
73842;BME280;62184;52.006;5.924;2023-04-25T03:49:34;100350.53;;;10.03;59.32
73842;BME280;62184;52.006;5.924;2023-04-25T03:52:01;100350.56;;;10.01;59.28
73842;BME280;62184;52.006;5.924;2023-04-25T03:54:27;100352.41;;;9.99;59.15
73842;BME280;62184;52.006;5.924;2023-04-25T03:56:56;100351.41;;;10.03;59.04
73842;BME280;62184;52.006;5.924;2023-04-25T03:59:23;100361.09;;;10.06;58.59
73842;BME280;62184;52.006;5.924;2023-04-25T04:01:49;100357.66;;;10.02;58.66
73842;BME280;62184;52.006;5.924;2023-04-25T04:04:16;100349.97;;;9.92;58.55
73842;BME280;62184;52.006;5.924;2023-04-25T04:06:42;100352.03;;;9.82;59.12
73842;BME280;62184;52.006;5.924;2023-04-25T04:09:08;100362.94;;;9.75;59.00
73842;BME280;62184;52.006;5.924;2023-04-25T04:11:35;100365.81;;;9.67;59.15
73842;BME280;62184;52.006;5.924;2023-04-25T04:14:04;100363.31;;;9.62;59.40
73842;BME280;62184;52.006;5.924;2023-04-25T04:16:30;100362.53;;;9.57;59.39
73842;BME280;62184;52.006;5.924;2023-04-25T04:18:57;100369.69;;;9.55;59.44
73842;BME280;62184;52.006;5.924;2023-04-25T04:21:23;100368.03;;;9.53;59.56
73842;BME280;62184;52.006;5.924;2023-04-25T04:23:49;100376.94;;;9.52;59.52
73842;BME280;62184;52.006;5.924;2023-04-25T04:26:16;100375.19;;;9.51;59.67
73842;BME280;62184;52.006;5.924;2023-04-25T04:28:43;100378.78;;;9.48;59.76
73842;BME280;62184;52.006;5.924;2023-04-25T04:31:12;100382.25;;;9.52;59.85
73842;BME280;62184;52.006;5.924;2023-04-25T04:33:38;100381.31;;;9.54;59.70
73842;BME280;62184;52.006;5.924;2023-04-25T04:36:05;100378.50;;;9.59;60.06
73842;BME280;62184;52.006;5.924;2023-04-25T04:38:32;100387.31;;;9.62;60.26
73842;BME280;62184;52.006;5.924;2023-04-25T04:40:59;100387.97;;;9.71;60.37
73842;BME280;62184;52.006;5.924;2023-04-25T04:43:25;100390.53;;;9.74;60.42
73842;BME280;62184;52.006;5.924;2023-04-25T04:45:51;100402.53;;;9.88;60.21
73842;BME280;62184;52.006;5.924;2023-04-25T04:48:20;100403.25;;;9.95;60.29
73842;BME280;62184;52.006;5.924;2023-04-25T04:50:47;100410.16;;;10.02;60.27
73842;BME280;62184;52.006;5.924;2023-04-25T04:53:13;100410.22;;;9.99;60.41
73842;BME280;62184;52.006;5.924;2023-04-25T04:55:40;100434.28;;;9.97;60.50
73842;BME280;62184;52.006;5.924;2023-04-25T04:58:06;100434.00;;;9.77;60.31
73842;BME280;62184;52.006;5.924;2023-04-25T05:00:33;100427.16;;;9.67;60.56
73842;BME280;62184;52.006;5.924;2023-04-25T05:03:00;100427.78;;;9.77;60.88
73842;BME280;62184;52.006;5.924;2023-04-25T05:05:29;100438.91;;;9.91;60.83
73842;BME280;62184;52.006;5.924;2023-04-25T05:07:55;100435.06;;;10.01;60.80
73842;BME280;62184;52.006;5.924;2023-04-25T05:10:22;100441.97;;;10.08;60.38
73842;BME280;62184;52.006;5.924;2023-04-25T05:12:48;100447.97;;;10.16;60.32
73842;BME280;62184;52.006;5.924;2023-04-25T05:15:14;100436.03;;;10.29;60.08
73842;BME280;62184;52.006;5.924;2023-04-25T05:17:41;100443.59;;;10.43;60.00
73842;BME280;62184;52.006;5.924;2023-04-25T05:20:08;100452.84;;;10.61;59.70
73842;BME280;62184;52.006;5.924;2023-04-25T05:22:38;100452.22;;;10.81;59.39
73842;BME280;62184;52.006;5.924;2023-04-25T05:25:05;100460.06;;;10.87;58.85
73842;BME280;62184;52.006;5.924;2023-04-25T05:27:32;100462.88;;;10.82;58.67
73842;BME280;62184;52.006;5.924;2023-04-25T05:29:58;100453.25;;;10.76;58.93
73842;BME280;62184;52.006;5.924;2023-04-25T05:32:25;100454.97;;;10.79;59.21
73842;BME280;62184;52.006;5.924;2023-04-25T05:34:51;100462.88;;;10.82;58.87
73842;BME280;62184;52.006;5.924;2023-04-25T05:37:18;100474.34;;;10.86;58.71
73842;BME280;62184;52.006;5.924;2023-04-25T05:39:47;100471.50;;;10.90;58.41
73842;BME280;62184;52.006;5.924;2023-04-25T05:42:13;100476.84;;;10.90;58.21
73842;BME280;62184;52.006;5.924;2023-04-25T05:44:40;100470.63;;;10.90;58.06
73842;BME280;62184;52.006;5.924;2023-04-25T05:47:06;100474.34;;;10.86;58.03
73842;BME280;62184;52.006;5.924;2023-04-25T05:49:33;100474.34;;;10.86;58.02
73842;BME280;62184;52.006;5.924;2023-04-25T05:52:00;100482.25;;;10.89;58.15
73842;BME280;62184;52.006;5.924;2023-04-25T05:54:26;100483.13;;;10.89;58.03
73842;BME280;62184;52.006;5.924;2023-04-25T05:56:56;100491.13;;;10.89;58.28
73842;BME280;62184;52.006;5.924;2023-04-25T05:59:23;100490.47;;;10.83;58.19
73842;BME280;62184;52.006;5.924;2023-04-25T06:01:49;100511.41;;;10.67;58.44
73842;BME280;62184;52.006;5.924;2023-04-25T06:04:16;100503.63;;;10.59;58.89
73842;BME280;62184;52.006;5.924;2023-04-25T06:06:42;100505.38;;;10.60;59.02
73842;BME280;62184;52.006;5.924;2023-04-25T06:09:08;100502.47;;;10.68;59.34
73842;BME280;62184;52.006;5.924;2023-04-25T06:11:35;100501.34;;;10.76;59.48
73842;BME280;62184;52.006;5.924;2023-04-25T06:14:04;100506.28;;;10.89;59.43
73842;BME280;62184;52.006;5.924;2023-04-25T06:16:30;100512.97;;;11.03;59.13
73842;BME280;62184;52.006;5.924;2023-04-25T06:18:56;100526.59;;;11.22;59.55
73842;BME280;62184;52.006;5.924;2023-04-25T06:21:23;100523.06;;;11.48;58.42
73842;BME280;62184;52.006;5.924;2023-04-25T06:23:49;100519.88;;;11.63;58.34
73842;BME280;62184;52.006;5.924;2023-04-25T06:26:16;100520.59;;;11.68;57.69
73842;BME280;62184;52.006;5.924;2023-04-25T06:28:42;100516.81;;;11.74;57.37
73842;BME280;62184;52.006;5.924;2023-04-25T06:31:11;100521.97;;;11.80;57.53
73842;BME280;62184;52.006;5.924;2023-04-25T06:33:37;100518.13;;;11.88;57.13
73842;BME280;62184;52.006;5.924;2023-04-25T06:36:04;100517.66;;;12.01;57.50
73842;BME280;62184;52.006;5.924;2023-04-25T06:38:31;100520.94;;;12.09;57.20
73842;BME280;62184;52.006;5.924;2023-04-25T06:40:57;100517.91;;;12.19;56.96
73842;BME280;62184;52.006;5.924;2023-04-25T06:43:24;100517.63;;;12.27;56.89
73842;BME280;62184;52.006;5.924;2023-04-25T06:45:50;100518.75;;;12.45;57.14
73842;BME280;62184;52.006;5.924;2023-04-25T06:48:19;100518.06;;;12.63;56.81
73842;BME280;62184;52.006;5.924;2023-04-25T06:50:46;100512.72;;;12.85;56.80
73842;BME280;62184;52.006;5.924;2023-04-25T06:53:12;100519.25;;;12.99;56.75
73842;BME280;62184;52.006;5.924;2023-04-25T06:55:39;100518.97;;;13.07;55.87
73842;BME280;62184;52.006;5.924;2023-04-25T06:58:05;100521.63;;;13.07;55.68
73842;BME280;62184;52.006;5.924;2023-04-25T07:00:31;100533.91;;;13.14;55.36
73842;BME280;62184;52.006;5.924;2023-04-25T07:02:58;100532.56;;;13.24;55.46
73842;BME280;62184;52.006;5.924;2023-04-25T07:05:27;100540.44;;;13.29;55.00
73842;BME280;62184;52.006;5.924;2023-04-25T07:07:53;100535.06;;;13.29;54.59
73842;BME280;62184;52.006;5.924;2023-04-25T07:10:20;100535.25;;;13.24;54.06
73842;BME280;62184;52.006;5.924;2023-04-25T07:12:46;100537.25;;;13.19;54.30
73842;BME280;62184;52.006;5.924;2023-04-25T07:15:13;100537.19;;;13.21;54.31
73842;BME280;62184;52.006;5.924;2023-04-25T07:17:39;100543.22;;;13.26;54.36
73842;BME280;62184;52.006;5.924;2023-04-25T07:20:07;100547.28;;;13.36;54.56
73842;BME280;62184;52.006;5.924;2023-04-25T07:22:36;100544.31;;;13.43;54.79
73842;BME280;62184;52.006;5.924;2023-04-25T07:25:03;100542.63;;;13.63;54.64
73842;BME280;62184;52.006;5.924;2023-04-25T07:27:31;100542.09;;;13.75;54.25
73842;BME280;62184;52.006;5.924;2023-04-25T07:29:57;100551.13;;;13.94;54.13
73842;BME280;62184;52.006;5.924;2023-04-25T07:32:24;100552.50;;;14.23;53.98
73842;BME280;62184;52.006;5.924;2023-04-25T07:34:51;100551.75;;;14.60;53.79
73842;BME280;62184;52.006;5.924;2023-04-25T07:37:18;100543.22;;;14.89;53.08
73842;BME280;62184;52.006;5.924;2023-04-25T07:39:47;100542.91;;;14.96;52.30
73842;BME280;62184;52.006;5.924;2023-04-25T07:42:13;100549.97;;;14.98;51.66
73842;BME280;62184;52.006;5.924;2023-04-25T07:44:40;100546.19;;;15.02;51.43
73842;BME280;62184;52.006;5.924;2023-04-25T07:47:07;100550.19;;;14.93;50.85
73842;BME280;62184;52.006;5.924;2023-04-25T07:49:34;100554.31;;;14.82;50.81
73842;BME280;62184;52.006;5.924;2023-04-25T07:52:01;100554.25;;;14.83;50.55
73842;BME280;62184;52.006;5.924;2023-04-25T07:54:27;100557.69;;;14.87;50.49
73842;BME280;62184;52.006;5.924;2023-04-25T07:56:56;100560.44;;;14.85;50.10
73842;BME280;62184;52.006;5.924;2023-04-25T07:59:23;100560.94;;;14.93;50.03
73842;BME280;62184;52.006;5.924;2023-04-25T08:01:49;100575.91;;;14.99;49.85
73842;BME280;62184;52.006;5.924;2023-04-25T08:04:16;100578.41;;;15.04;49.72
73842;BME280;62184;52.006;5.924;2023-04-25T08:06:43;100578.25;;;15.07;48.82
73842;BME280;62184;52.006;5.924;2023-04-25T08:09:09;100589.72;;;14.91;48.10
73842;BME280;62184;52.006;5.924;2023-04-25T08:11:36;100585.44;;;14.87;48.54
73842;BME280;62184;52.006;5.924;2023-04-25T08:14:06;100589.34;;;14.99;48.35
73842;BME280;62184;52.006;5.924;2023-04-25T08:16:32;100590.97;;;15.03;47.46
73842;BME280;62184;52.006;5.924;2023-04-25T08:18:59;100583.91;;;15.19;47.43
73842;BME280;62184;52.006;5.924;2023-04-25T08:21:26;100590.72;;;15.45;47.03
73842;BME280;62184;52.006;5.924;2023-04-25T08:23:52;100591.75;;;15.61;45.43
73842;BME280;62184;52.006;5.924;2023-04-25T08:26:18;100595.25;;;15.63;45.15
73842;BME280;62184;52.006;5.924;2023-04-25T08:28:45;100592.31;;;15.68;44.69
73842;BME280;62184;52.006;5.924;2023-04-25T08:31:15;100594.53;;;15.77;44.35
73842;BME280;62184;52.006;5.924;2023-04-25T08:33:41;100601.06;;;15.90;44.34
73842;BME280;62184;52.006;5.924;2023-04-25T08:36:08;100607.22;;;15.92;43.60
73842;BME280;62184;52.006;5.924;2023-04-25T08:38:34;100612.06;;;15.86;43.83
73842;BME280;62184;52.006;5.924;2023-04-25T08:41:01;100614.34;;;15.76;43.51
73842;BME280;62184;52.006;5.924;2023-04-25T08:43:29;100624.22;;;15.76;43.25
73842;BME280;62184;52.006;5.924;2023-04-25T08:45:59;100621.22;;;15.64;43.19
73842;BME280;62184;52.006;5.924;2023-04-25T08:48:32;100622.28;;;15.60;42.78
73842;BME280;62184;52.006;5.924;2023-04-25T08:51:01;100628.25;;;15.67;42.60
73842;BME280;62184;52.006;5.924;2023-04-25T08:53:29;100635.16;;;15.54;42.44
73842;BME280;62184;52.006;5.924;2023-04-25T08:55:58;100643.97;;;15.20;43.39
73842;BME280;62184;52.006;5.924;2023-04-25T08:58:27;100637.44;;;15.07;44.25
73842;BME280;62184;52.006;5.924;2023-04-25T09:00:54;100642.81;;;15.07;45.17
73842;BME280;62184;52.006;5.924;2023-04-25T09:03:21;100642.34;;;15.16;44.91
73842;BME280;62184;52.006;5.924;2023-04-25T09:05:51;100657.78;;;15.12;44.68
73842;BME280;62184;52.006;5.924;2023-04-25T09:08:17;100661.47;;;15.10;45.05
73842;BME280;62184;52.006;5.924;2023-04-25T09:10:44;100664.69;;;15.18;44.97
73842;BME280;62184;52.006;5.924;2023-04-25T09:13:12;100666.66;;;15.33;45.33
73842;BME280;62184;52.006;5.924;2023-04-25T09:15:47;100671.16;;;15.51;44.88
73842;BME280;62184;52.006;5.924;2023-04-25T09:18:22;100668.19;;;15.57;43.86
73842;BME280;62184;52.006;5.924;2023-04-25T09:20:52;100663.31;;;15.65;43.95
73842;BME280;62184;52.006;5.924;2023-04-25T09:23:20;100675.34;;;15.77;44.17
73842;BME280;62184;52.006;5.924;2023-04-25T09:25:48;100678.91;;;15.78;42.88
73842;BME280;62184;52.006;5.924;2023-04-25T09:28:15;100675.34;;;15.77;42.56
73842;BME280;62184;52.006;5.924;2023-04-25T09:30:42;100680.41;;;15.83;42.30
73842;BME280;62184;52.006;5.924;2023-04-25T09:33:10;100688.28;;;15.88;42.52
73842;BME280;62184;52.006;5.924;2023-04-25T09:35:38;100684.81;;;16.03;41.77
73842;BME280;62184;52.006;5.924;2023-04-25T09:38:13;100680.50;;;16.35;41.80
73842;BME280;62184;52.006;5.924;2023-04-25T09:40:41;100689.88;;;16.79;41.52
73842;BME280;62184;52.006;5.924;2023-04-25T09:43:10;100685.53;;;17.10;40.41
73842;BME280;62184;52.006;5.924;2023-04-25T09:45:41;100701.19;;;17.03;40.00
73842;BME280;62184;52.006;5.924;2023-04-25T09:48:07;100698.34;;;17.06;39.71
73842;BME280;62184;52.006;5.924;2023-04-25T09:50:34;100679.28;;;17.25;39.30
73842;BME280;62184;52.006;5.924;2023-04-25T09:53:04;100680.88;;;17.29;38.59
73842;BME280;62184;52.006;5.924;2023-04-25T09:55:34;100692.91;;;17.24;37.80
73842;BME280;62184;52.006;5.924;2023-04-25T09:58:04;100693.50;;;17.29;38.11
73842;BME280;62184;52.006;5.924;2023-04-25T10:00:32;100690.03;;;17.42;37.50
73842;BME280;62184;52.006;5.924;2023-04-25T10:03:00;100681.84;;;17.44;36.71
73842;BME280;62184;52.006;5.924;2023-04-25T10:05:30;100683.44;;;17.48;36.87
73842;BME280;62184;52.006;5.924;2023-04-25T10:07:58;100683.31;;;17.82;37.10
73842;BME280;62184;52.006;5.924;2023-04-25T10:10:28;100693.53;;;18.23;35.71
73842;BME280;62184;52.006;5.924;2023-04-25T10:12:59;100691.84;;;18.36;35.31
73842;BME280;62184;52.006;5.924;2023-04-25T10:15:27;100694.75;;;18.33;35.70
73842;BME280;62184;52.006;5.924;2023-04-25T10:17:54;100702.88;;;18.63;36.06
73842;BME280;62184;52.006;5.924;2023-04-25T10:20:22;100698.59;;;18.89;35.20
73842;BME280;62184;52.006;5.924;2023-04-25T10:22:50;100703.13;;;18.88;34.91
73842;BME280;62184;52.006;5.924;2023-04-25T10:25:23;100698.69;;;19.01;35.16
73842;BME280;62184;52.006;5.924;2023-04-25T10:27:51;100693.31;;;19.16;34.82
73842;BME280;62184;52.006;5.924;2023-04-25T10:30:20;100704.78;;;19.05;33.87
73842;BME280;62184;52.006;5.924;2023-04-25T10:32:46;100713.06;;;18.74;33.41
73842;BME280;62184;52.006;5.924;2023-04-25T10:35:14;100723.38;;;18.21;34.50
73842;BME280;62184;52.006;5.924;2023-04-25T10:37:58;100741.53;;;17.39;35.13
73842;BME280;62184;52.006;5.924;2023-04-25T10:40:26;100750.84;;;16.48;36.65
73842;BME280;62184;52.006;5.924;2023-04-25T10:42:53;100761.81;;;15.71;38.66
73842;BME280;62184;52.006;5.924;2023-04-25T10:45:22;100762.56;;;15.15;40.17
73842;BME280;62184;52.006;5.924;2023-04-25T10:47:48;100750.41;;;14.86;41.46
73842;BME280;62184;52.006;5.924;2023-04-25T10:50:15;100755.19;;;14.80;41.95
73842;BME280;62184;52.006;5.924;2023-04-25T10:52:42;100764.91;;;14.82;42.09
73842;BME280;62184;52.006;5.924;2023-04-25T10:55:09;100762.19;;;15.04;41.84
73842;BME280;62184;52.006;5.924;2023-04-25T10:57:37;100757.84;;;15.20;41.58
73842;BME280;62184;52.006;5.924;2023-04-25T11:00:19;100757.59;;;15.45;41.92
73842;BME280;62184;52.006;5.924;2023-04-25T11:02:53;100760.63;;;15.77;41.85
73842;BME280;62184;52.006;5.924;2023-04-25T11:05:30;100748.59;;;16.21;41.59
73842;BME280;62184;52.006;5.924;2023-04-25T11:07:58;100753.84;;;16.59;40.58
73842;BME280;62184;52.006;5.924;2023-04-25T11:10:26;100757.66;;;16.73;39.77
73842;BME280;62184;52.006;5.924;2023-04-25T11:12:53;100752.94;;;16.77;39.76
73842;BME280;62184;52.006;5.924;2023-04-25T11:15:20;100751.50;;;17.04;39.51
73842;BME280;62184;52.006;5.924;2023-04-25T11:17:50;100756.34;;;17.48;39.15
73842;BME280;62184;52.006;5.924;2023-04-25T11:20:17;100741.69;;;18.01;37.96
73842;BME280;62184;52.006;5.924;2023-04-25T11:22:45;100752.41;;;18.02;37.30
73842;BME280;62184;52.006;5.924;2023-04-25T11:25:14;100740.03;;;18.14;36.86
73842;BME280;62184;52.006;5.924;2023-04-25T11:27:51;100732.16;;;18.41;35.04
73842;BME280;62184;52.006;5.924;2023-04-25T11:30:19;100728.09;;;18.63;34.67
73842;BME280;62184;52.006;5.924;2023-04-25T11:32:50;100726.94;;;18.67;34.47
73842;BME280;62184;52.006;5.924;2023-04-25T11:35:16;100732.63;;;18.63;34.98
73842;BME280;62184;52.006;5.924;2023-04-25T11:37:43;100723.44;;;18.95;34.03
73842;BME280;62184;52.006;5.924;2023-04-25T11:40:11;100734.28;;;19.09;32.80
73842;BME280;62184;52.006;5.924;2023-04-25T11:42:38;100732.25;;;19.13;32.85
73842;BME280;62184;52.006;5.924;2023-04-25T11:45:06;100748.13;;;19.19;31.94
73842;BME280;62184;52.006;5.924;2023-04-25T11:47:36;100739.13;;;19.19;31.88
73842;BME280;62184;52.006;5.924;2023-04-25T11:50:04;100745.16;;;18.80;31.92
73842;BME280;62184;52.006;5.924;2023-04-25T11:52:36;100739.97;;;18.45;31.56
73842;BME280;62184;52.006;5.924;2023-04-25T11:55:05;100740.59;;;18.50;32.49
73842;BME280;62184;52.006;5.924;2023-04-25T11:57:33;100744.69;;;18.87;32.55
73842;BME280;62184;52.006;5.924;2023-04-25T12:00:08;100736.06;;;19.25;32.31
73842;BME280;62184;52.006;5.924;2023-04-25T12:02:40;100735.00;;;19.56;31.87
73842;BME280;62184;52.006;5.924;2023-04-25T12:05:08;100742.72;;;19.76;32.88
73842;BME280;62184;52.006;5.924;2023-04-25T12:07:35;100739.34;;;20.13;31.78
73842;BME280;62184;52.006;5.924;2023-04-25T12:10:04;100744.69;;;20.01;31.28
73842;BME280;62184;52.006;5.924;2023-04-25T12:12:32;100767.97;;;19.76;30.73
73842;BME280;62184;52.006;5.924;2023-04-25T12:15:08;100765.38;;;19.32;32.83
73842;BME280;62184;52.006;5.924;2023-04-25T12:17:38;100773.81;;;18.98;33.40
73842;BME280;62184;52.006;5.924;2023-04-25T12:20:09;100781.34;;;18.63;34.44
73842;BME280;62184;52.006;5.924;2023-04-25T12:22:40;100797.31;;;18.20;35.14
73842;BME280;62184;52.006;5.924;2023-04-25T12:25:08;100795.28;;;17.92;35.18
73842;BME280;62184;52.006;5.924;2023-04-25T12:27:35;100795.34;;;17.75;35.62
73842;BME280;62184;52.006;5.924;2023-04-25T12:30:01;100807.66;;;17.65;35.87
73842;BME280;62184;52.006;5.924;2023-04-25T12:32:28;100802.88;;;17.53;35.37
73842;BME280;62184;52.006;5.924;2023-04-25T12:34:58;100808.69;;;17.63;35.66
73842;BME280;62184;52.006;5.924;2023-04-25T12:37:24;100804.34;;;17.76;35.42
73842;BME280;62184;52.006;5.924;2023-04-25T12:39:50;100807.25;;;17.88;34.98
73842;BME280;62184;52.006;5.924;2023-04-25T12:42:17;100808.34;;;17.84;34.10
73842;BME280;62184;52.006;5.924;2023-04-25T12:44:43;100809.50;;;17.80;34.98
73842;BME280;62184;52.006;5.924;2023-04-25T12:47:09;100800.97;;;17.88;34.67
73842;BME280;62184;52.006;5.924;2023-04-25T12:49:36;100802.88;;;17.86;34.86
73842;BME280;62184;52.006;5.924;2023-04-25T12:52:05;100797.47;;;17.86;35.46